Time;durP1;ratioP1;P1;durP2;ratioP2;P2;SDS_P1;SDS_P2;PMS_P1;PMS_P2;Temp;Humidity;BMP_temperature;BMP_pressure;BME280_temperature;BME280_humidity;BME280_pressure;Samples;Min_cycle;Max_cycle;Signal;HPM_P1;HPM_P2
2024/01/13 00:01:47;;;;;;;13.75;8.75;;;;;;;;;;5016427;28;20034;-92
2024/01/13 00:04:12;;;;;;;16.85;8.57;;;;;;;;;;4999604;28;20052;-92
2024/01/13 00:06:37;;;;;;;14.43;8.45;;;;;;;;;;4999925;28;20451;-93
2024/01/13 00:09:03;;;;;;;13.90;9.20;;;;;;;;;;4998912;28;20038;-90
2024/01/13 00:11:28;;;;;;;15.20;9.05;;;;;;;;;;5003504;28;20116;-93
2024/01/13 00:13:54;;;;;;;14.18;7.97;;;;;;;;;;5003425;28;20032;-92
2024/01/13 00:16:19;;;;;;;14.32;9.07;;;;;;;;;;5003016;28;20038;-92
2024/01/13 00:18:44;;;;;;;11.57;7.35;;;;;;;;;;5003136;28;20025;-93
2024/01/13 00:21:10;;;;;;;13.40;8.82;;;;;;;;;;5000524;28;20081;-93
2024/01/13 00:23:36;;;;;;;14.30;7.47;;;;;;;;;;4983873;28;20045;-92
2024/01/13 00:26:01;;;;;;;14.85;8.07;;;;;;;;;;5016429;28;20037;-91
2024/01/13 00:28:26;;;;;;;11.75;7.55;;;;;;;;;;4983888;28;20167;-92
2024/01/13 00:30:52;;;;;;;12.27;7.40;;;;;;;;;;5016380;28;20018;-91
2024/01/13 00:33:17;;;;;;;13.05;7.43;;;;;;;;;;5015913;28;20085;-93
2024/01/13 00:35:42;;;;;;;9.27;7.28;;;;;;;;;;4983959;28;20029;-92
2024/01/13 00:38:08;;;;;;;7.95;4.28;;;;;;;;;;4983608;28;20037;-93
2024/01/13 00:40:33;;;;;;;12.52;6.97;;;;;;;;;;5015272;28;20085;-93
2024/01/13 00:42:59;;;;;;;8.70;6.35;;;;;;;;;;4983550;28;20464;-93
2024/01/13 00:45:24;;;;;;;9.98;6.35;;;;;;;;;;4983274;28;20080;-93
2024/01/13 00:47:50;;;;;;;7.97;5.35;;;;;;;;;;4983181;28;20112;-92
2024/01/13 00:50:15;;;;;;;8.27;5.50;;;;;;;;;;4983271;28;20018;-93
2024/01/13 00:52:41;;;;;;;9.65;6.13;;;;;;;;;;5015213;28;20103;-94
2024/01/13 00:55:06;;;;;;;9.32;5.20;;;;;;;;;;5015617;28;20657;-92
2024/01/13 00:57:32;;;;;;;9.63;6.03;;;;;;;;;;4982778;28;20109;-91
2024/01/13 00:59:57;;;;;;;9.70;6.50;;;;;;;;;;4983250;28;20038;-92
2024/01/13 01:02:22;;;;;;;8.88;6.40;;;;;;;;;;5015253;28;20030;-92
2024/01/13 01:04:48;;;;;;;7.25;4.78;;;;;;;;;;4983344;28;20080;-94
2024/01/13 01:07:13;;;;;;;9.98;6.50;;;;;;;;;;5014989;28;20034;-92
2024/01/13 01:09:38;;;;;;;8.48;5.72;;;;;;;;;;5014963;28;20038;-93
2024/01/13 01:12:04;;;;;;;9.98;6.35;;;;;;;;;;4997859;28;20041;-92
2024/01/13 01:14:29;;;;;;;4.95;4.05;;;;;;;;;;4982389;28;20556;-94
2024/01/13 01:16:56;;;;;;;8.00;4.63;;;;;;;;;;4983696;28;20045;-93
2024/01/13 01:19:22;;;;;;;9.13;5.85;;;;;;;;;;4983196;28;20026;-92
2024/01/13 01:21:47;;;;;;;9.50;5.72;;;;;;;;;;5014614;28;20408;-92
2024/01/13 01:24:12;;;;;;;2.85;2.58;;;;;;;;;;5015431;28;20084;-93
2024/01/13 01:26:38;;;;;;;8.43;5.75;;;;;;;;;;5015245;28;20037;-94
2024/01/13 01:29:03;;;;;;;8.70;5.90;;;;;;;;;;5015219;28;20476;-94
2024/01/13 01:31:29;;;;;;;9.45;6.22;;;;;;;;;;5015297;28;20116;-93
2024/01/13 01:33:55;;;;;;;8.55;5.95;;;;;;;;;;4999215;28;20053;-94
2024/01/13 01:36:20;;;;;;;7.55;5.65;;;;;;;;;;5014857;28;20034;-91
2024/01/13 01:38:45;;;;;;;8.38;6.25;;;;;;;;;;5014908;28;20030;-93
2024/01/13 01:41:12;;;;;;;11.68;7.07;;;;;;;;;;4982581;28;20469;-92
2024/01/13 01:43:38;;;;;;;6.60;4.35;;;;;;;;;;4982752;28;20452;-92
2024/01/13 01:46:03;;;;;;;11.07;7.40;;;;;;;;;;4982504;28;20030;-93
2024/01/13 01:48:32;;;;;;;12.18;6.53;;;;;;;;;;4981850;28;20025;-92
2024/01/13 01:50:58;;;;;;;13.20;7.35;;;;;;;;;;4982661;28;20038;-93
2024/01/13 01:53:24;;;;;;;11.38;7.05;;;;;;;;;;4982000;28;20397;-93
2024/01/13 01:55:49;;;;;;;16.25;7.82;;;;;;;;;;4982375;28;20034;-94
2024/01/13 01:58:15;;;;;;;12.90;8.10;;;;;;;;;;5014494;28;20034;-92
2024/01/13 02:00:41;;;;;;;12.82;7.13;;;;;;;;;;4981847;28;20037;-91
2024/01/13 02:03:06;;;;;;;13.48;7.72;;;;;;;;;;4982254;28;20022;-93
2024/01/13 02:05:32;;;;;;;9.98;6.47;;;;;;;;;;4982421;28;20099;-93
2024/01/13 02:07:57;;;;;;;9.90;6.47;;;;;;;;;;4982933;28;20496;-91
2024/01/13 02:10:23;;;;;;;12.98;7.80;;;;;;;;;;4982418;28;20022;-92
2024/01/13 02:12:49;;;;;;;12.32;8.63;;;;;;;;;;5014431;28;20469;-93
2024/01/13 02:15:14;;;;;;;10.98;6.43;;;;;;;;;;4981998;28;20034;-93
2024/01/13 02:17:40;;;;;;;9.43;5.20;;;;;;;;;;4981932;28;20038;-91
2024/01/13 02:20:09;;;;;;;12.48;7.15;;;;;;;;;;4981606;28;20042;-91
2024/01/13 02:22:34;;;;;;;13.48;7.97;;;;;;;;;;4981969;28;20023;-92
2024/01/13 02:25:02;;;;;;;9.88;6.05;;;;;;;;;;4981509;28;20033;-91
2024/01/13 02:27:27;;;;;;;15.02;8.25;;;;;;;;;;4997939;28;20034;-92
2024/01/13 02:29:53;;;;;;;3.90;2.85;;;;;;;;;;4981496;28;20476;-91
2024/01/13 02:32:18;;;;;;;16.33;10.02;;;;;;;;;;4981379;28;20109;-93
2024/01/13 02:34:44;;;;;;;15.38;8.85;;;;;;;;;;4980821;28;20192;-92
2024/01/13 02:37:09;;;;;;;11.13;6.93;;;;;;;;;;4981181;28;20030;-92
2024/01/13 02:39:34;;;;;;;18.98;11.45;;;;;;;;;;4981061;28;20038;-91
2024/01/13 02:42:00;;;;;;;20.35;11.48;;;;;;;;;;4981199;28;20534;-92
2024/01/13 02:44:25;;;;;;;11.43;6.97;;;;;;;;;;4980834;28;20057;-91
2024/01/13 02:46:51;;;;;;;15.43;9.77;;;;;;;;;;4981025;28;20026;-93
2024/01/13 02:49:16;;;;;;;20.23;12.82;;;;;;;;;;4981275;28;20055;-92
2024/01/13 02:51:42;;;;;;;19.20;13.00;;;;;;;;;;4981008;28;20734;-92
2024/01/13 02:54:07;;;;;;;20.55;12.55;;;;;;;;;;4981152;28;20089;-92
2024/01/13 02:56:33;;;;;;;18.88;12.38;;;;;;;;;;4980660;28;20025;-91
2024/01/13 02:58:59;;;;;;;11.93;7.53;;;;;;;;;;4980885;28;20034;-93
2024/01/13 03:01:24;;;;;;;16.23;9.90;;;;;;;;;;4981082;28;20349;-92
2024/01/13 03:03:50;;;;;;;15.95;10.48;;;;;;;;;;4996993;28;20181;-93
2024/01/13 03:06:15;;;;;;;10.70;7.35;;;;;;;;;;4980901;28;20579;-93
2024/01/13 03:08:41;;;;;;;19.50;12.10;;;;;;;;;;4981009;28;20488;-91
2024/01/13 03:11:06;;;;;;;16.48;10.82;;;;;;;;;;4980947;28;20092;-95
2024/01/13 03:13:31;;;;;;;15.90;10.18;;;;;;;;;;4979757;28;20032;-92
2024/01/13 03:15:57;;;;;;;17.17;10.43;;;;;;;;;;4980526;28;20042;-92
2024/01/13 03:18:22;;;;;;;15.27;10.25;;;;;;;;;;4980956;28;20125;-92
2024/01/13 03:20:48;;;;;;;16.73;9.27;;;;;;;;;;4980770;28;20515;-91
2024/01/13 03:23:13;;;;;;;12.63;8.27;;;;;;;;;;4980563;28;20084;-91
2024/01/13 03:25:38;;;;;;;15.57;9.50;;;;;;;;;;4980771;28;20037;-91
2024/01/13 03:28:04;;;;;;;14.95;9.30;;;;;;;;;;4980577;28;20513;-93
2024/01/13 03:30:29;;;;;;;10.85;5.10;;;;;;;;;;4997402;28;20030;-91
2024/01/13 03:32:55;;;;;;;13.82;9.63;;;;;;;;;;4980904;28;20045;-93
2024/01/13 03:35:20;;;;;;;13.73;9.00;;;;;;;;;;4997007;28;20037;-92
2024/01/13 03:37:45;;;;;;;14.95;9.93;;;;;;;;;;4980906;28;20461;-93
2024/01/13 03:40:11;;;;;;;14.18;9.10;;;;;;;;;;4980999;28;20037;-92
2024/01/13 03:42:36;;;;;;;12.30;9.05;;;;;;;;;;4980775;28;20026;-93
2024/01/13 03:45:02;;;;;;;15.57;9.38;;;;;;;;;;4982595;28;20032;-94
2024/01/13 03:47:27;;;;;;;13.35;8.75;;;;;;;;;;4968712;28;20404;-92
2024/01/13 03:49:53;;;;;;;10.65;5.65;;;;;;;;;;4984384;28;20126;-94
2024/01/13 03:52:18;;;;;;;11.40;7.90;;;;;;;;;;4984313;28;20029;-91
2024/01/13 03:54:44;;;;;;;13.10;9.07;;;;;;;;;;4984575;28;20049;-92
2024/01/13 03:57:10;;;;;;;14.43;9.40;;;;;;;;;;4983866;28;20084;-92
2024/01/13 03:59:36;;;;;;;12.98;8.20;;;;;;;;;;4984589;28;20037;-93
2024/01/13 04:02:01;;;;;;;13.48;8.93;;;;;;;;;;4984930;28;20026;-93
2024/01/13 04:04:27;;;;;;;12.50;8.32;;;;;;;;;;4984067;28;20046;-93
2024/01/13 04:06:52;;;;;;;13.25;8.02;;;;;;;;;;4983319;28;20092;-95
2024/01/13 04:09:18;;;;;;;11.55;7.90;;;;;;;;;;4964628;28;20500;-93
2024/01/13 04:11:43;;;;;;;13.95;8.15;;;;;;;;;;4964640;28;20034;-94
2024/01/13 04:14:08;;;;;;;11.50;8.05;;;;;;;;;;4964464;28;20118;-92
2024/01/13 04:16:34;;;;;;;14.57;9.55;;;;;;;;;;4964583;28;20117;-92
2024/01/13 04:18:59;;;;;;;13.35;8.52;;;;;;;;;;4964339;28;20121;-92
2024/01/13 04:21:24;;;;;;;12.68;8.18;;;;;;;;;;4979746;28;20501;-93
2024/01/13 04:23:50;;;;;;;10.52;6.22;;;;;;;;;;4983992;28;20034;-92
2024/01/13 04:26:16;;;;;;;12.60;7.72;;;;;;;;;;4983913;28;20029;-93
2024/01/13 04:28:41;;;;;;;13.82;9.15;;;;;;;;;;4983652;28;20112;-91
2024/01/13 04:31:07;;;;;;;13.13;9.18;;;;;;;;;;4984032;28;20094;-91
2024/01/13 04:33:34;;;;;;;12.10;9.18;;;;;;;;;;4983925;28;20404;-92
2024/01/13 04:36:00;;;;;;;11.38;8.85;;;;;;;;;;4983594;28;20057;-91
2024/01/13 04:38:25;;;;;;;16.05;10.23;;;;;;;;;;4983516;28;20034;-91
2024/01/13 04:40:50;;;;;;;13.50;7.97;;;;;;;;;;4984095;28;20037;-92
2024/01/13 04:43:16;;;;;;;12.80;9.80;;;;;;;;;;4983630;28;20026;-92
2024/01/13 04:45:41;;;;;;;11.82;9.05;;;;;;;;;;4983137;28;20030;-92
2024/01/13 04:48:07;;;;;;;11.10;7.70;;;;;;;;;;4983468;28;20593;-92
2024/01/13 04:50:32;;;;;;;11.90;7.80;;;;;;;;;;4983170;28;20021;-92
2024/01/13 04:52:58;;;;;;;9.95;7.57;;;;;;;;;;4983279;28;20030;-93
2024/01/13 04:55:23;;;;;;;11.27;8.20;;;;;;;;;;4998986;28;20030;-91
2024/01/13 04:57:49;;;;;;;11.35;8.07;;;;;;;;;;4982396;28;20030;-94
2024/01/13 05:00:14;;;;;;;13.40;8.95;;;;;;;;;;4983165;28;20026;-92
2024/01/13 05:02:40;;;;;;;13.52;9.65;;;;;;;;;;4982396;28;20093;-95
2024/01/13 05:05:05;;;;;;;10.73;6.97;;;;;;;;;;4983045;28;20093;-92
2024/01/13 05:07:31;;;;;;;7.30;5.43;;;;;;;;;;4983523;28;20386;-92
2024/01/13 05:09:56;;;;;;;12.20;7.95;;;;;;;;;;4983062;28;20448;-92
2024/01/13 05:12:21;;;;;;;11.18;8.10;;;;;;;;;;4982924;28;20022;-92
2024/01/13 05:14:47;;;;;;;11.45;7.50;;;;;;;;;;4983255;28;20053;-93
2024/01/13 05:17:12;;;;;;;13.98;8.82;;;;;;;;;;4982991;28;20037;-93
2024/01/13 05:19:38;;;;;;;8.30;6.70;;;;;;;;;;4982343;28;20044;-92
2024/01/13 05:22:03;;;;;;;12.73;8.38;;;;;;;;;;5015393;28;20034;-91
2024/01/13 05:24:29;;;;;;;10.15;7.00;;;;;;;;;;5015488;28;20077;-92
2024/01/13 05:26:54;;;;;;;8.05;5.57;;;;;;;;;;5015478;28;20415;-92
2024/01/13 05:29:20;;;;;;;9.15;7.20;;;;;;;;;;4982690;28;20498;-91
2024/01/13 05:31:46;;;;;;;10.35;6.90;;;;;;;;;;5015306;28;20026;-94
2024/01/13 05:34:11;;;;;;;10.38;6.90;;;;;;;;;;4982562;28;20493;-91
2024/01/13 05:36:37;;;;;;;11.90;7.55;;;;;;;;;;5015430;28;20033;-93
2024/01/13 05:39:03;;;;;;;11.38;6.65;;;;;;;;;;5015336;28;20018;-91
2024/01/13 05:41:28;;;;;;;11.00;7.93;;;;;;;;;;5014856;28;20492;-92
2024/01/13 05:43:53;;;;;;;11.32;7.55;;;;;;;;;;5014720;28;20021;-92
2024/01/13 05:46:19;;;;;;;8.85;6.22;;;;;;;;;;5015040;28;20176;-92
2024/01/13 05:48:44;;;;;;;9.70;6.93;;;;;;;;;;5015429;28;20033;-91
2024/01/13 05:51:10;;;;;;;11.40;7.97;;;;;;;;;;5014333;28;20018;-92
2024/01/13 05:53:37;;;;;;;12.13;8.52;;;;;;;;;;5014899;28;20491;-91
2024/01/13 05:56:02;;;;;;;9.50;6.80;;;;;;;;;;5014735;28;20034;-92
2024/01/13 05:58:28;;;;;;;11.18;7.57;;;;;;;;;;4981492;28;20074;-92
2024/01/13 06:00:53;;;;;;;11.15;6.90;;;;;;;;;;5014627;28;20026;-92
2024/01/13 06:03:19;;;;;;;10.27;7.43;;;;;;;;;;5014854;28;20126;-92
2024/01/13 06:05:44;;;;;;;7.68;6.22;;;;;;;;;;4982082;28;20057;-92
2024/01/13 06:08:10;;;;;;;9.55;7.25;;;;;;;;;;5014158;28;20555;-92
2024/01/13 06:10:35;;;;;;;10.55;6.50;;;;;;;;;;5014599;28;20069;-94
2024/01/13 06:13:01;;;;;;;9.98;7.07;;;;;;;;;;5014629;28;20029;-93
2024/01/13 06:15:28;;;;;;;6.55;5.28;;;;;;;;;;5014269;28;20057;-94
2024/01/13 06:17:53;;;;;;;9.27;6.65;;;;;;;;;;5014209;28;20041;-92
2024/01/13 06:20:19;;;;;;;7.22;5.13;;;;;;;;;;5014426;28;20045;-93
2024/01/13 06:22:44;;;;;;;7.45;6.63;;;;;;;;;;5014508;28;20045;-93
2024/01/13 06:25:10;;;;;;;10.23;7.05;;;;;;;;;;5014438;28;20080;-92
2024/01/13 06:27:35;;;;;;;8.80;7.03;;;;;;;;;;4981676;28;20365;-93
2024/01/13 06:30:00;;;;;;;8.32;6.55;;;;;;;;;;5014210;28;20026;-93
2024/01/13 06:32:26;;;;;;;10.10;7.03;;;;;;;;;;5014501;28;20491;-92
2024/01/13 06:34:51;;;;;;;8.65;6.57;;;;;;;;;;5013982;28;20515;-92
2024/01/13 06:37:17;;;;;;;8.15;5.47;;;;;;;;;;5014222;28;20053;-93
2024/01/13 06:39:42;;;;;;;9.43;6.50;;;;;;;;;;5013690;28;20429;-93
2024/01/13 06:42:08;;;;;;;8.40;6.80;;;;;;;;;;5013596;28;20053;-93
2024/01/13 06:44:33;;;;;;;9.15;6.13;;;;;;;;;;4981619;28;20026;-93
2024/01/13 06:47:01;;;;;;;8.32;6.13;;;;;;;;;;5013542;28;20463;-94
2024/01/13 06:49:26;;;;;;;6.43;4.65;;;;;;;;;;4981600;28;20120;-93
2024/01/13 06:51:51;;;;;;;7.40;5.63;;;;;;;;;;5013604;28;20050;-95
2024/01/13 06:54:17;;;;;;;8.80;7.03;;;;;;;;;;5013543;28;20496;-93
2024/01/13 06:56:42;;;;;;;8.25;5.72;;;;;;;;;;4981240;28;20037;-93
2024/01/13 06:59:08;;;;;;;11.15;7.03;;;;;;;;;;4980809;28;20611;-94
2024/01/13 07:01:33;;;;;;;8.10;6.35;;;;;;;;;;4981437;28;20105;-92
2024/01/13 07:03:59;;;;;;;10.65;6.45;;;;;;;;;;4981031;28;20029;-94
2024/01/13 07:06:24;;;;;;;7.63;6.57;;;;;;;;;;4981353;28;20037;-93
2024/01/13 07:08:50;;;;;;;7.65;5.93;;;;;;;;;;5013099;28;20018;-92
2024/01/13 07:11:15;;;;;;;8.68;6.72;;;;;;;;;;4981188;28;20034;-93
2024/01/13 07:13:44;;;;;;;8.52;7.00;;;;;;;;;;4981058;28;20033;-94
2024/01/13 07:16:11;;;;;;;9.15;6.80;;;;;;;;;;4982496;28;20384;-95
2024/01/13 07:18:36;;;;;;;13.20;9.07;;;;;;;;;;4998641;28;20499;-92
2024/01/13 07:21:02;;;;;;;10.55;7.00;;;;;;;;;;4980596;28;20046;-94
2024/01/13 07:26:44;;;;;;;15.48;9.20;;;;;;;;;;5012185;28;20398;-59
2024/01/13 07:29:09;;;;;;;12.88;8.88;;;;;;;;;;5014456;28;20092;-68
2024/01/13 07:31:34;;;;;;;24.27;12.68;;;;;;;;;;5014110;28;20034;-69
2024/01/13 07:34:00;;;;;;;21.92;11.48;;;;;;;;;;5012259;28;20032;-69
2024/01/13 07:36:25;;;;;;;16.70;10.18;;;;;;;;;;5013386;28;20021;-68
2024/01/13 07:38:51;;;;;;;18.40;11.05;;;;;;;;;;5014064;28;20036;-69
2024/01/13 07:41:17;;;;;;;14.63;9.40;;;;;;;;;;5014051;28;20037;-69
2024/01/13 07:43:44;;;;;;;18.10;10.23;;;;;;;;;;5014131;28;20030;-68
2024/01/13 07:46:10;;;;;;;17.45;9.15;;;;;;;;;;4996054;28;20022;-69
2024/01/13 07:48:36;;;;;;;17.88;10.38;;;;;;;;;;5013627;28;20037;-69
2024/01/13 07:51:01;;;;;;;15.45;8.32;;;;;;;;;;5013362;28;20033;-69
2024/01/13 07:53:27;;;;;;;16.80;9.90;;;;;;;;;;5013505;28;20366;-69
2024/01/13 07:55:52;;;;;;;18.75;10.18;;;;;;;;;;5013601;28;20037;-69
2024/01/13 07:58:18;;;;;;;15.40;10.32;;;;;;;;;;5013478;28;20026;-61
2024/01/13 08:00:43;;;;;;;11.40;8.13;;;;;;;;;;5013699;28;20042;-61
2024/01/13 08:03:08;;;;;;;16.13;8.05;;;;;;;;;;5012367;28;20073;-61
2024/01/13 08:05:34;;;;;;;16.15;9.05;;;;;;;;;;5012289;28;20014;-61
2024/01/13 08:08:01;;;;;;;12.13;8.05;;;;;;;;;;5012493;28;20017;-60
2024/01/13 08:10:26;;;;;;;12.40;9.07;;;;;;;;;;5013832;28;20030;-61
2024/01/13 08:12:52;;;;;;;14.48;8.50;;;;;;;;;;5013623;28;20469;-61
2024/01/13 08:15:17;;;;;;;12.68;8.00;;;;;;;;;;5013663;28;20066;-61
2024/01/13 08:17:43;;;;;;;14.48;8.82;;;;;;;;;;5012494;28;20037;-60
2024/01/13 08:20:09;;;;;;;13.57;8.63;;;;;;;;;;5013369;28;20026;-63
2024/01/13 08:22:34;;;;;;;13.40;7.70;;;;;;;;;;5006732;28;20034;-63
2024/01/13 08:25:00;;;;;;;13.63;8.07;;;;;;;;;;5004600;28;20560;-63
2024/01/13 08:27:25;;;;;;;10.77;8.10;;;;;;;;;;4974374;28;20469;-62
2024/01/13 08:29:50;;;;;;;13.43;8.00;;;;;;;;;;4991347;28;20038;-70
2024/01/13 08:32:16;;;;;;;12.90;8.38;;;;;;;;;;4993581;28;20038;-70
2024/01/13 08:34:41;;;;;;;13.35;9.13;;;;;;;;;;4994888;28;20121;-70
2024/01/13 08:37:09;;;;;;;13.35;8.27;;;;;;;;;;4993962;28;20081;-71
2024/01/13 08:39:34;;;;;;;12.68;8.27;;;;;;;;;;4993882;28;20033;-70
2024/01/13 08:41:59;;;;;;;14.05;8.30;;;;;;;;;;4994411;28;20031;-70
2024/01/13 08:44:25;;;;;;;21.08;10.88;;;;;;;;;;4960903;28;20543;-70
2024/01/13 08:46:50;;;;;;;18.05;8.23;;;;;;;;;;4993614;28;20029;-70
2024/01/13 08:49:15;;;;;;;18.55;9.60;;;;;;;;;;4994400;28;20068;-70
2024/01/13 08:51:41;;;;;;;19.40;9.02;;;;;;;;;;4994123;28;20034;-70
2024/01/13 08:54:06;;;;;;;21.95;9.35;;;;;;;;;;4976909;28;20036;-70
2024/01/13 08:56:34;;;;;;;21.15;9.45;;;;;;;;;;4977156;28;20065;-70
2024/01/13 08:59:00;;;;;;;21.15;10.13;;;;;;;;;;4994859;28;20070;-70
2024/01/13 09:01:26;;;;;;;14.63;8.63;;;;;;;;;;4993340;28;20058;-68
2024/01/13 09:03:51;;;;;;;15.18;8.80;;;;;;;;;;4993611;28;20445;-69
2024/01/13 09:06:16;;;;;;;12.55;8.15;;;;;;;;;;4993690;28;20038;-69
2024/01/13 09:08:42;;;;;;;14.40;8.48;;;;;;;;;;4993166;28;20041;-69
2024/01/13 09:11:09;;;;;;;12.60;8.45;;;;;;;;;;4975008;28;20046;-69
2024/01/13 09:13:34;;;;;;;12.10;7.70;;;;;;;;;;4975263;28;20034;-69
2024/01/13 09:15:59;;;;;;;14.13;8.77;;;;;;;;;;4992995;28;20033;-69
2024/01/13 09:18:25;;;;;;;15.50;9.52;;;;;;;;;;4993399;28;20066;-68
2024/01/13 09:20:51;;;;;;;11.70;8.15;;;;;;;;;;4993087;28;20073;-68
2024/01/13 09:23:16;;;;;;;11.60;7.43;;;;;;;;;;4993331;28;20089;-68
2024/01/13 09:25:41;;;;;;;16.85;9.57;;;;;;;;;;5004525;28;20378;-68
2024/01/13 09:28:07;;;;;;;12.30;7.95;;;;;;;;;;5012681;28;20060;-68
2024/01/13 09:30:32;;;;;;;16.23;9.60;;;;;;;;;;5013458;28;20472;-68
2024/01/13 09:32:58;;;;;;;16.70;9.10;;;;;;;;;;5012461;28;20025;-69
2024/01/13 09:35:23;;;;;;;16.80;9.45;;;;;;;;;;5013263;28;20034;-69
2024/01/13 09:37:48;;;;;;;13.80;8.88;;;;;;;;;;5014458;28;20409;-69
2024/01/13 09:40:15;;;;;;;11.68;7.72;;;;;;;;;;5014309;28;20466;-69
2024/01/13 09:42:50;;;;;;;17.27;9.05;;;;;;;;;;5013713;28;20022;-69
2024/01/13 09:45:17;;;;;;;13.20;7.95;;;;;;;;;;4996731;28;20041;-69
2024/01/13 09:47:45;;;;;;;17.30;9.30;;;;;;;;;;5013380;28;20040;-62
2024/01/13 09:50:11;;;;;;;15.00;9.10;;;;;;;;;;5012505;28;20037;-63
2024/01/13 09:52:37;;;;;;;13.00;8.77;;;;;;;;;;4995047;28;20032;-63
2024/01/13 09:55:05;;;;;;;18.17;9.45;;;;;;;;;;5012355;28;20046;-63
2024/01/13 09:57:34;;;;;;;10.73;6.95;;;;;;;;;;4994769;28;20405;-63
2024/01/13 09:59:59;;;;;;;13.82;9.07;;;;;;;;;;5012315;28;20065;-69
2024/01/13 10:02:25;;;;;;;13.35;9.35;;;;;;;;;;5011887;28;20465;-69
2024/01/13 10:04:50;;;;;;;11.60;8.75;;;;;;;;;;5012244;28;20037;-69
2024/01/13 10:07:16;;;;;;;11.45;7.47;;;;;;;;;;5011771;28;20041;-70
2024/01/13 10:09:42;;;;;;;13.80;9.05;;;;;;;;;;5012109;28;20254;-68
2024/01/13 10:12:08;;;;;;;13.27;8.02;;;;;;;;;;5011789;28;20440;-69
2024/01/13 10:14:36;;;;;;;12.50;8.18;;;;;;;;;;5011395;28;20041;-67
2024/01/13 10:17:05;;;;;;;13.88;9.35;;;;;;;;;;5012082;28;20493;-67
2024/01/13 10:19:33;;;;;;;13.20;8.80;;;;;;;;;;5012077;28;20034;-69
2024/01/13 10:21:59;;;;;;;14.82;8.18;;;;;;;;;;5011647;28;20104;-69
2024/01/13 10:24:24;;;;;;;12.25;8.82;;;;;;;;;;5011391;28;20050;-69
2024/01/13 10:26:50;;;;;;;13.23;9.07;;;;;;;;;;5011714;28;20037;-68
2024/01/13 10:29:15;;;;;;;14.88;8.05;;;;;;;;;;5011936;28;20045;-67
2024/01/13 10:31:40;;;;;;;12.52;8.57;;;;;;;;;;5011583;28;20022;-68
2024/01/13 10:34:10;;;;;;;12.13;8.07;;;;;;;;;;5011832;28;20049;-69
2024/01/13 10:36:35;;;;;;;10.82;8.85;;;;;;;;;;4993925;28;20112;-69
2024/01/13 10:39:01;;;;;;;13.48;9.25;;;;;;;;;;4993873;28;20080;-70
2024/01/13 10:41:28;;;;;;;12.85;8.40;;;;;;;;;;5011213;28;20063;-69
2024/01/13 10:43:55;;;;;;;12.15;9.27;;;;;;;;;;5011057;28;20099;-69
2024/01/13 10:46:25;;;;;;;13.48;9.23;;;;;;;;;;4993320;28;20124;-69
2024/01/13 10:48:58;;;;;;;14.05;10.07;;;;;;;;;;4993412;28;20042;-69
2024/01/13 10:51:32;;;;;;;11.35;7.38;;;;;;;;;;5011264;28;20045;-69
2024/01/13 10:53:58;;;;;;;11.55;8.40;;;;;;;;;;5010350;28;20029;-69
2024/01/13 10:56:25;;;;;;;12.15;8.32;;;;;;;;;;5011159;28;20029;-69
2024/01/13 10:58:51;;;;;;;13.30;9.43;;;;;;;;;;5011104;28;20038;-69
2024/01/13 11:01:16;;;;;;;7.78;6.70;;;;;;;;;;5010794;28;20381;-69
2024/01/13 11:03:44;;;;;;;11.65;8.23;;;;;;;;;;4993486;28;20021;-69
2024/01/13 11:06:09;;;;;;;11.27;8.20;;;;;;;;;;5011336;28;20418;-70
2024/01/13 11:08:35;;;;;;;9.65;7.43;;;;;;;;;;5010830;28;20113;-70
2024/01/13 11:11:01;;;;;;;11.95;8.52;;;;;;;;;;5010958;28;20030;-70
2024/01/13 11:13:29;;;;;;;12.93;9.00;;;;;;;;;;4992345;28;20041;-70
2024/01/13 11:15:55;;;;;;;13.35;8.18;;;;;;;;;;5010966;28;20493;-70
2024/01/13 11:18:20;;;;;;;11.13;8.63;;;;;;;;;;5010449;28;20116;-70
2024/01/13 11:21:06;;;;;;;11.00;7.95;;;;;;;;;;4992958;28;20113;-70
2024/01/13 11:23:46;;;;;;;8.30;7.03;;;;;;;;;;5010531;28;20501;-70
2024/01/13 11:26:12;;;;;;;;;;;;;;;;;;5010942;28;20053;-70
2024/01/13 11:28:54;;;;;;;9.90;7.68;;;;;;;;;;5011078;28;20427;-70
2024/01/13 11:31:29;;;;;;;14.45;10.07;;;;;;;;;;5010797;28;20030;-70
2024/01/13 11:33:55;;;;;;;13.73;10.38;;;;;;;;;;5007975;28;20045;-73
2024/01/13 11:36:21;;;;;;;14.55;9.52;;;;;;;;;;5009777;28;20389;-71
2024/01/13 11:38:46;;;;;;;11.20;8.20;;;;;;;;;;5009549;28;20513;-71
2024/01/13 11:41:12;;;;;;;12.07;7.32;;;;;;;;;;5010251;28;20034;-71
2024/01/13 11:43:44;;;;;;;9.98;7.32;;;;;;;;;;4993079;28;20144;-71
2024/01/13 11:46:10;;;;;;;11.20;7.95;;;;;;;;;;4976681;28;20370;-72
2024/01/13 11:48:36;;;;;;;11.75;7.95;;;;;;;;;;5010653;28;20030;-72
2024/01/13 11:51:08;;;;;;;10.48;6.78;;;;;;;;;;5010120;28;20044;-71
2024/01/13 11:53:41;;;;;;;10.30;7.75;;;;;;;;;;4992758;28;20088;-71
2024/01/13 11:56:07;;;;;;;10.88;7.15;;;;;;;;;;5009528;28;20041;-71
2024/01/13 11:58:36;;;;;;;12.32;6.88;;;;;;;;;;5010422;28;20052;-71
2024/01/13 12:01:09;;;;;;;10.27;6.75;;;;;;;;;;5009571;28;20501;-71
2024/01/13 12:03:34;;;;;;;8.88;6.10;;;;;;;;;;5009559;28;20046;-71
2024/01/13 12:06:00;;;;;;;10.90;6.63;;;;;;;;;;5011871;28;20134;-71
2024/01/13 12:08:26;;;;;;;5.93;4.10;;;;;;;;;;5014497;28;20065;-71
2024/01/13 12:10:53;;;;;;;8.60;6.30;;;;;;;;;;4996354;28;20048;-71
2024/01/13 12:13:19;;;;;;;7.38;5.72;;;;;;;;;;5014353;28;20036;-71
2024/01/13 12:15:48;;;;;;;6.78;5.43;;;;;;;;;;5014224;28;20068;-71
2024/01/13 12:18:21;;;;;;;11.10;7.22;;;;;;;;;;4996774;28;20038;-60
2024/01/13 12:20:50;;;;;;;9.18;6.80;;;;;;;;;;5013438;28;20433;-73
2024/01/13 12:23:16;;;;;;;8.57;6.35;;;;;;;;;;5013891;28;20033;-73
2024/01/13 12:25:41;;;;;;;8.32;5.70;;;;;;;;;;5013659;28;20045;-73
2024/01/13 12:28:07;;;;;;;9.07;6.45;;;;;;;;;;5013777;28;20065;-73
2024/01/13 12:30:34;;;;;;;10.75;7.53;;;;;;;;;;5028883;28;20486;-68
2024/01/13 12:32:59;;;;;;;9.13;5.55;;;;;;;;;;5014067;28;20069;-72
2024/01/13 12:35:25;;;;;;;8.65;6.38;;;;;;;;;;4996582;28;20033;-69
2024/01/13 12:37:51;;;;;;;8.75;5.72;;;;;;;;;;5013972;28;20064;-69
2024/01/13 12:40:18;;;;;;;12.18;7.75;;;;;;;;;;5014220;28;20113;-69
2024/01/13 12:42:44;;;;;;;11.85;8.05;;;;;;;;;;5013868;28;20486;-68
2024/01/13 12:45:11;;;;;;;15.25;9.50;;;;;;;;;;5013037;28;20113;-68
2024/01/13 12:47:38;;;;;;;9.73;6.55;;;;;;;;;;5013962;28;20404;-68
2024/01/13 12:50:10;;;;;;;11.18;7.25;;;;;;;;;;4979893;28;20034;-68
2024/01/13 12:52:38;;;;;;;17.52;9.35;;;;;;;;;;5013747;28;20397;-67
2024/01/13 12:55:04;;;;;;;14.85;7.63;;;;;;;;;;5014015;28;20033;-68
2024/01/13 12:57:30;;;;;;;19.50;10.52;;;;;;;;;;5013318;28;20103;-68
2024/01/13 12:59:56;;;;;;;22.30;11.75;;;;;;;;;;5012907;28;20501;-68
2024/01/13 13:02:21;;;;;;;27.08;14.05;;;;;;;;;;5013108;28;20022;-60
2024/01/13 13:04:46;;;;;;;31.63;14.98;;;;;;;;;;5013359;28;20034;-58
2024/01/13 13:07:12;;;;;;;11.13;4.68;;;;;;;;;;5013330;28;20043;-58
2024/01/13 13:09:37;;;;;;;18.40;9.60;;;;;;;;;;5013278;28;20040;-59
2024/01/13 13:12:03;;;;;;;19.75;10.27;;;;;;;;;;5013102;28;20038;-61
2024/01/13 13:14:28;;;;;;;19.73;9.93;;;;;;;;;;5012939;28;20034;-59
2024/01/13 13:16:54;;;;;;;11.43;6.40;;;;;;;;;;5011694;28;20540;-59
2024/01/13 13:19:20;;;;;;;14.77;6.88;;;;;;;;;;5012926;28;20029;-61
2024/01/13 13:21:46;;;;;;;17.73;9.65;;;;;;;;;;5012843;28;20437;-60
2024/01/13 13:24:11;;;;;;;21.48;10.73;;;;;;;;;;4995416;28;20041;-61
2024/01/13 13:26:37;;;;;;;20.60;10.10;;;;;;;;;;5012838;28;20141;-60
2024/01/13 13:29:02;;;;;;;17.30;8.65;;;;;;;;;;5012267;28;20061;-60
2024/01/13 13:31:28;;;;;;;15.07;8.68;;;;;;;;;;5006364;28;20560;-69
2024/01/13 13:33:53;;;;;;;16.05;8.50;;;;;;;;;;5010906;28;20064;-69
2024/01/13 13:36:18;;;;;;;15.65;8.65;;;;;;;;;;4997725;28;20049;-60
2024/01/13 13:38:45;;;;;;;20.75;11.13;;;;;;;;;;5012796;28;20371;-60
2024/01/13 13:41:10;;;;;;;18.35;10.40;;;;;;;;;;5012409;28;20029;-60
2024/01/13 13:43:36;;;;;;;20.63;10.75;;;;;;;;;;5011993;28;20037;-60
2024/01/13 13:46:01;;;;;;;18.73;9.88;;;;;;;;;;5011213;28;20049;-60
2024/01/13 13:48:28;;;;;;;24.15;11.35;;;;;;;;;;5012405;28;20040;-60
2024/01/13 13:50:53;;;;;;;23.17;12.52;;;;;;;;;;5012303;28;20069;-60
2024/01/13 13:53:19;;;;;;;21.08;11.27;;;;;;;;;;4997828;28;20064;-61
2024/01/13 13:55:44;;;;;;;10.43;6.30;;;;;;;;;;5032164;28;20084;-61
2024/01/13 13:58:10;;;;;;;22.63;12.30;;;;;;;;;;5031670;28;20079;-60
2024/01/13 14:00:35;;;;;;;21.45;11.35;;;;;;;;;;5032293;28;20714;-60
2024/01/13 14:03:01;;;;;;;26.42;13.27;;;;;;;;;;5014107;28;20037;-60
2024/01/13 14:05:26;;;;;;;26.83;14.27;;;;;;;;;;5032130;28;20109;-60
2024/01/13 14:07:52;;;;;;;27.35;14.23;;;;;;;;;;5031852;28;20072;-60
2024/01/13 14:10:17;;;;;;;26.08;12.35;;;;;;;;;;5031864;28;20041;-60
2024/01/13 14:12:42;;;;;;;19.92;10.65;;;;;;;;;;5014174;28;20032;-60
2024/01/13 14:15:09;;;;;;;26.40;14.02;;;;;;;;;;5031557;28;20034;-61
2024/01/13 14:17:34;;;;;;;31.98;15.95;;;;;;;;;;5031373;28;20052;-61
2024/01/13 14:20:00;;;;;;;27.10;15.05;;;;;;;;;;5013703;28;20029;-62
2024/01/13 14:22:25;;;;;;;29.17;14.70;;;;;;;;;;5031495;28;20033;-62
2024/01/13 14:24:51;;;;;;;33.97;14.85;;;;;;;;;;5013010;28;20041;-62
2024/01/13 14:27:16;;;;;;;28.00;13.43;;;;;;;;;;5030726;28;20053;-72